sensor_id;sensor_type;location;lat;lon;timestamp;P1;durP1;ratioP1;P2;durP2;ratioP2
76125;SDS011;65174;48.138;21.002;2023-06-22T00:01:40;1.92;;;1.58;;
76125;SDS011;65174;48.138;21.002;2023-06-22T00:04:42;3.38;;;1.63;;
76125;SDS011;65174;48.138;21.002;2023-06-22T00:07:44;2.90;;;1.65;;
76125;SDS011;65174;48.138;21.002;2023-06-22T00:10:46;3.07;;;1.70;;
76125;SDS011;65174;48.138;21.002;2023-06-22T00:13:48;2.38;;;1.70;;
76125;SDS011;65174;48.138;21.002;2023-06-22T00:16:52;3.65;;;2.03;;
76125;SDS011;65174;48.138;21.002;2023-06-22T00:19:56;4.20;;;1.73;;
76125;SDS011;65174;48.138;21.002;2023-06-22T00:23:01;3.33;;;2.22;;
76125;SDS011;65174;48.138;21.002;2023-06-22T00:26:07;3.40;;;2.40;;
76125;SDS011;65174;48.138;21.002;2023-06-22T00:29:09;3.70;;;2.63;;
76125;SDS011;65174;48.138;21.002;2023-06-22T00:32:12;6.35;;;2.13;;
76125;SDS011;65174;48.138;21.002;2023-06-22T00:35:14;3.08;;;2.33;;
76125;SDS011;65174;48.138;21.002;2023-06-22T00:38:16;3.92;;;2.30;;
76125;SDS011;65174;48.138;21.002;2023-06-22T00:41:18;3.10;;;1.80;;
76125;SDS011;65174;48.138;21.002;2023-06-22T00:44:20;4.53;;;2.03;;
76125;SDS011;65174;48.138;21.002;2023-06-22T00:47:22;4.00;;;2.20;;
76125;SDS011;65174;48.138;21.002;2023-06-22T00:50:25;3.55;;;2.25;;
76125;SDS011;65174;48.138;21.002;2023-06-22T00:53:29;4.13;;;1.95;;
76125;SDS011;65174;48.138;21.002;2023-06-22T00:56:36;2.57;;;1.87;;
76125;SDS011;65174;48.138;21.002;2023-06-22T00:59:39;3.25;;;1.83;;
76125;SDS011;65174;48.138;21.002;2023-06-22T01:02:41;4.22;;;2.22;;
76125;SDS011;65174;48.138;21.002;2023-06-22T01:05:43;2.72;;;1.73;;
76125;SDS011;65174;48.138;21.002;2023-06-22T01:08:51;3.45;;;2.53;;
76125;SDS011;65174;48.138;21.002;2023-06-22T01:12:04;4.30;;;1.97;;
76125;SDS011;65174;48.138;21.002;2023-06-22T01:15:21;4.30;;;1.83;;
76125;SDS011;65174;48.138;21.002;2023-06-22T01:18:28;3.28;;;1.67;;
76125;SDS011;65174;48.138;21.002;2023-06-22T01:21:34;3.15;;;1.23;;
76125;SDS011;65174;48.138;21.002;2023-06-22T01:28:05;2.80;;;1.93;;
76125;SDS011;65174;48.138;21.002;2023-06-22T01:31:22;3.88;;;2.08;;
76125;SDS011;65174;48.138;21.002;2023-06-22T01:34:26;4.40;;;1.80;;
76125;SDS011;65174;48.138;21.002;2023-06-22T01:37:30;4.00;;;1.98;;
76125;SDS011;65174;48.138;21.002;2023-06-22T01:40:34;2.60;;;1.77;;
76125;SDS011;65174;48.138;21.002;2023-06-22T01:43:37;2.90;;;1.70;;
76125;SDS011;65174;48.138;21.002;2023-06-22T01:46:40;1.65;;;1.25;;
76125;SDS011;65174;48.138;21.002;2023-06-22T01:49:42;2.58;;;1.77;;
76125;SDS011;65174;48.138;21.002;2023-06-22T01:52:44;2.28;;;1.77;;
76125;SDS011;65174;48.138;21.002;2023-06-22T01:55:47;8.85;;;1.90;;
76125;SDS011;65174;48.138;21.002;2023-06-22T01:59:11;2.17;;;1.33;;
76125;SDS011;65174;48.138;21.002;2023-06-22T02:02:16;3.75;;;1.40;;
76125;SDS011;65174;48.138;21.002;2023-06-22T02:05:21;2.45;;;1.67;;
76125;SDS011;65174;48.138;21.002;2023-06-22T02:08:27;2.88;;;1.45;;
76125;SDS011;65174;48.138;21.002;2023-06-22T02:11:33;2.40;;;1.48;;
76125;SDS011;65174;48.138;21.002;2023-06-22T02:14:37;2.67;;;1.47;;
76125;SDS011;65174;48.138;21.002;2023-06-22T02:17:40;2.60;;;1.80;;
76125;SDS011;65174;48.138;21.002;2023-06-22T02:20:47;2.00;;;1.52;;
76125;SDS011;65174;48.138;21.002;2023-06-22T02:23:49;3.28;;;2.00;;
76125;SDS011;65174;48.138;21.002;2023-06-22T02:26:50;3.33;;;2.15;;
76125;SDS011;65174;48.138;21.002;2023-06-22T02:29:52;2.07;;;1.70;;
76125;SDS011;65174;48.138;21.002;2023-06-22T02:32:54;1.67;;;1.30;;
76125;SDS011;65174;48.138;21.002;2023-06-22T02:36:01;8.98;;;2.22;;
76125;SDS011;65174;48.138;21.002;2023-06-22T02:39:06;3.15;;;1.58;;
76125;SDS011;65174;48.138;21.002;2023-06-22T02:42:08;2.00;;;1.80;;
76125;SDS011;65174;48.138;21.002;2023-06-22T02:45:12;5.03;;;1.93;;
76125;SDS011;65174;48.138;21.002;2023-06-22T02:48:16;2.33;;;1.30;;
76125;SDS011;65174;48.138;21.002;2023-06-22T02:51:18;2.75;;;1.80;;
76125;SDS011;65174;48.138;21.002;2023-06-22T02:54:21;3.63;;;2.00;;
76125;SDS011;65174;48.138;21.002;2023-06-22T02:57:25;3.45;;;1.58;;
76125;SDS011;65174;48.138;21.002;2023-06-22T03:00:27;2.90;;;1.60;;
76125;SDS011;65174;48.138;21.002;2023-06-22T03:03:32;3.15;;;1.58;;
76125;SDS011;65174;48.138;21.002;2023-06-22T03:06:35;2.85;;;1.77;;
76125;SDS011;65174;48.138;21.002;2023-06-22T03:09:38;2.38;;;1.42;;
76125;SDS011;65174;48.138;21.002;2023-06-22T03:12:40;2.22;;;1.65;;
76125;SDS011;65174;48.138;21.002;2023-06-22T03:15:43;3.93;;;1.40;;
76125;SDS011;65174;48.138;21.002;2023-06-22T03:18:45;2.15;;;1.50;;
76125;SDS011;65174;48.138;21.002;2023-06-22T03:21:47;2.45;;;1.65;;
76125;SDS011;65174;48.138;21.002;2023-06-22T03:24:49;2.30;;;1.58;;
76125;SDS011;65174;48.138;21.002;2023-06-22T03:27:51;2.65;;;1.67;;
76125;SDS011;65174;48.138;21.002;2023-06-22T03:30:53;2.77;;;1.20;;
76125;SDS011;65174;48.138;21.002;2023-06-22T03:33:56;5.28;;;1.80;;
76125;SDS011;65174;48.138;21.002;2023-06-22T03:36:58;3.95;;;1.90;;
76125;SDS011;65174;48.138;21.002;2023-06-22T03:40:00;3.17;;;1.80;;
76125;SDS011;65174;48.138;21.002;2023-06-22T03:43:03;2.83;;;1.63;;
76125;SDS011;65174;48.138;21.002;2023-06-22T03:46:05;2.20;;;1.60;;
76125;SDS011;65174;48.138;21.002;2023-06-22T03:49:07;1.80;;;1.48;;
76125;SDS011;65174;48.138;21.002;2023-06-22T03:52:09;3.67;;;2.00;;
76125;SDS011;65174;48.138;21.002;2023-06-22T03:55:12;4.07;;;1.17;;
76125;SDS011;65174;48.138;21.002;2023-06-22T03:58:14;3.92;;;1.70;;
76125;SDS011;65174;48.138;21.002;2023-06-22T04:01:16;2.50;;;1.60;;
76125;SDS011;65174;48.138;21.002;2023-06-22T04:04:18;2.35;;;1.48;;
76125;SDS011;65174;48.138;21.002;2023-06-22T04:07:20;2.50;;;1.80;;
76125;SDS011;65174;48.138;21.002;2023-06-22T04:10:22;2.20;;;1.65;;
76125;SDS011;65174;48.138;21.002;2023-06-22T04:13:24;4.43;;;1.55;;
76125;SDS011;65174;48.138;21.002;2023-06-22T04:16:26;4.87;;;1.90;;
76125;SDS011;65174;48.138;21.002;2023-06-22T04:19:28;1.92;;;1.40;;
76125;SDS011;65174;48.138;21.002;2023-06-22T04:22:30;2.38;;;1.60;;
76125;SDS011;65174;48.138;21.002;2023-06-22T04:25:32;3.95;;;1.50;;
76125;SDS011;65174;48.138;21.002;2023-06-22T04:28:34;2.42;;;1.70;;
76125;SDS011;65174;48.138;21.002;2023-06-22T04:31:36;3.70;;;1.70;;
76125;SDS011;65174;48.138;21.002;2023-06-22T04:34:39;2.67;;;1.70;;
76125;SDS011;65174;48.138;21.002;2023-06-22T04:37:41;2.60;;;1.55;;
76125;SDS011;65174;48.138;21.002;2023-06-22T04:40:43;2.53;;;1.67;;
76125;SDS011;65174;48.138;21.002;2023-06-22T04:43:45;2.40;;;1.40;;
76125;SDS011;65174;48.138;21.002;2023-06-22T04:46:59;1.57;;;1.27;;
76125;SDS011;65174;48.138;21.002;2023-06-22T04:50:05;3.30;;;2.15;;
76125;SDS011;65174;48.138;21.002;2023-06-22T04:53:07;2.78;;;1.98;;
76125;SDS011;65174;48.138;21.002;2023-06-22T04:56:11;3.72;;;2.15;;
76125;SDS011;65174;48.138;21.002;2023-06-22T04:59:13;3.85;;;2.42;;
76125;SDS011;65174;48.138;21.002;2023-06-22T05:02:15;4.70;;;2.47;;
76125;SDS011;65174;48.138;21.002;2023-06-22T05:05:17;4.55;;;2.80;;
76125;SDS011;65174;48.138;21.002;2023-06-22T05:08:19;5.78;;;3.22;;
76125;SDS011;65174;48.138;21.002;2023-06-22T05:11:21;5.00;;;3.22;;
76125;SDS011;65174;48.138;21.002;2023-06-22T05:14:23;5.07;;;2.88;;
76125;SDS011;65174;48.138;21.002;2023-06-22T05:17:25;4.63;;;2.87;;
76125;SDS011;65174;48.138;21.002;2023-06-22T05:20:27;5.60;;;3.47;;
76125;SDS011;65174;48.138;21.002;2023-06-22T05:23:30;5.38;;;3.63;;
76125;SDS011;65174;48.138;21.002;2023-06-22T05:26:32;5.93;;;3.45;;
76125;SDS011;65174;48.138;21.002;2023-06-22T05:29:36;6.40;;;3.90;;
76125;SDS011;65174;48.138;21.002;2023-06-22T05:32:38;6.53;;;4.43;;
76125;SDS011;65174;48.138;21.002;2023-06-22T05:35:40;5.80;;;3.60;;
76125;SDS011;65174;48.138;21.002;2023-06-22T05:38:43;7.10;;;3.97;;
76125;SDS011;65174;48.138;21.002;2023-06-22T05:41:45;5.55;;;3.75;;
76125;SDS011;65174;48.138;21.002;2023-06-22T05:44:47;8.27;;;4.95;;
76125;SDS011;65174;48.138;21.002;2023-06-22T05:47:49;7.37;;;4.67;;
76125;SDS011;65174;48.138;21.002;2023-06-22T05:50:51;7.70;;;5.30;;
76125;SDS011;65174;48.138;21.002;2023-06-22T05:53:53;8.52;;;4.93;;
76125;SDS011;65174;48.138;21.002;2023-06-22T05:56:55;8.00;;;5.47;;
76125;SDS011;65174;48.138;21.002;2023-06-22T05:59:57;7.75;;;5.20;;
76125;SDS011;65174;48.138;21.002;2023-06-22T06:02:59;9.40;;;5.50;;
76125;SDS011;65174;48.138;21.002;2023-06-22T06:06:05;10.48;;;5.80;;
76125;SDS011;65174;48.138;21.002;2023-06-22T06:09:07;9.27;;;6.15;;
76125;SDS011;65174;48.138;21.002;2023-06-22T06:12:09;11.95;;;5.95;;
76125;SDS011;65174;48.138;21.002;2023-06-22T06:15:11;9.52;;;6.15;;
76125;SDS011;65174;48.138;21.002;2023-06-22T06:18:13;11.13;;;5.73;;
76125;SDS011;65174;48.138;21.002;2023-06-22T06:21:15;8.48;;;5.63;;
76125;SDS011;65174;48.138;21.002;2023-06-22T06:24:17;9.35;;;5.20;;
76125;SDS011;65174;48.138;21.002;2023-06-22T06:27:19;9.20;;;5.82;;
76125;SDS011;65174;48.138;21.002;2023-06-22T06:30:21;7.50;;;5.07;;
76125;SDS011;65174;48.138;21.002;2023-06-22T06:33:24;7.03;;;4.80;;
76125;SDS011;65174;48.138;21.002;2023-06-22T06:36:26;7.45;;;4.80;;
76125;SDS011;65174;48.138;21.002;2023-06-22T06:39:28;11.20;;;5.72;;
76125;SDS011;65174;48.138;21.002;2023-06-22T06:42:31;7.28;;;5.40;;
76125;SDS011;65174;48.138;21.002;2023-06-22T06:45:33;11.65;;;5.95;;
76125;SDS011;65174;48.138;21.002;2023-06-22T06:48:36;8.20;;;5.00;;
76125;SDS011;65174;48.138;21.002;2023-06-22T06:51:38;7.72;;;4.85;;
76125;SDS011;65174;48.138;21.002;2023-06-22T06:54:40;9.05;;;4.80;;
76125;SDS011;65174;48.138;21.002;2023-06-22T06:57:44;6.65;;;5.10;;
76125;SDS011;65174;48.138;21.002;2023-06-22T07:00:49;5.97;;;4.07;;
76125;SDS011;65174;48.138;21.002;2023-06-22T07:03:51;6.80;;;4.23;;
76125;SDS011;65174;48.138;21.002;2023-06-22T07:06:55;8.07;;;4.93;;
76125;SDS011;65174;48.138;21.002;2023-06-22T07:09:57;5.78;;;4.88;;
76125;SDS011;65174;48.138;21.002;2023-06-22T07:12:59;5.50;;;4.05;;
76125;SDS011;65174;48.138;21.002;2023-06-22T07:16:01;4.65;;;3.70;;
76125;SDS011;65174;48.138;21.002;2023-06-22T07:19:03;5.17;;;4.40;;
76125;SDS011;65174;48.138;21.002;2023-06-22T07:22:05;5.93;;;4.20;;
76125;SDS011;65174;48.138;21.002;2023-06-22T07:25:07;6.18;;;4.07;;
76125;SDS011;65174;48.138;21.002;2023-06-22T07:28:16;5.13;;;4.05;;
76125;SDS011;65174;48.138;21.002;2023-06-22T07:31:18;5.65;;;4.30;;
76125;SDS011;65174;48.138;21.002;2023-06-22T07:34:20;4.67;;;3.77;;
76125;SDS011;65174;48.138;21.002;2023-06-22T07:37:22;6.32;;;4.60;;
76125;SDS011;65174;48.138;21.002;2023-06-22T07:40:24;7.50;;;4.55;;
76125;SDS011;65174;48.138;21.002;2023-06-22T07:43:26;5.85;;;4.28;;
76125;SDS011;65174;48.138;21.002;2023-06-22T07:46:28;5.68;;;4.45;;
76125;SDS011;65174;48.138;21.002;2023-06-22T07:49:31;4.80;;;3.97;;
76125;SDS011;65174;48.138;21.002;2023-06-22T07:52:33;5.43;;;4.30;;
76125;SDS011;65174;48.138;21.002;2023-06-22T07:55:35;5.32;;;4.00;;
76125;SDS011;65174;48.138;21.002;2023-06-22T07:58:37;5.70;;;4.00;;
76125;SDS011;65174;48.138;21.002;2023-06-22T08:01:39;5.22;;;3.92;;
76125;SDS011;65174;48.138;21.002;2023-06-22T08:04:41;6.97;;;4.93;;
76125;SDS011;65174;48.138;21.002;2023-06-22T08:07:43;5.65;;;4.47;;
76125;SDS011;65174;48.138;21.002;2023-06-22T08:10:48;6.05;;;4.15;;
76125;SDS011;65174;48.138;21.002;2023-06-22T08:13:51;5.43;;;3.92;;
76125;SDS011;65174;48.138;21.002;2023-06-22T08:16:53;4.90;;;3.85;;
76125;SDS011;65174;48.138;21.002;2023-06-22T08:19:55;5.33;;;3.80;;
76125;SDS011;65174;48.138;21.002;2023-06-22T08:22:57;5.55;;;4.07;;
76125;SDS011;65174;48.138;21.002;2023-06-22T08:26:01;6.05;;;4.00;;
76125;SDS011;65174;48.138;21.002;2023-06-22T08:29:03;7.00;;;4.65;;
76125;SDS011;65174;48.138;21.002;2023-06-22T08:32:06;5.82;;;4.43;;
76125;SDS011;65174;48.138;21.002;2023-06-22T08:35:08;7.43;;;4.27;;
76125;SDS011;65174;48.138;21.002;2023-06-22T08:38:11;5.32;;;4.18;;
76125;SDS011;65174;48.138;21.002;2023-06-22T08:41:15;6.15;;;4.40;;
76125;SDS011;65174;48.138;21.002;2023-06-22T08:44:18;7.38;;;3.88;;
76125;SDS011;65174;48.138;21.002;2023-06-22T08:47:21;6.28;;;4.55;;
76125;SDS011;65174;48.138;21.002;2023-06-22T08:50:24;5.37;;;4.27;;
76125;SDS011;65174;48.138;21.002;2023-06-22T08:53:27;6.60;;;4.82;;
76125;SDS011;65174;48.138;21.002;2023-06-22T08:56:28;6.30;;;4.60;;
76125;SDS011;65174;48.138;21.002;2023-06-22T08:59:30;5.38;;;4.15;;
76125;SDS011;65174;48.138;21.002;2023-06-22T09:02:32;5.63;;;4.25;;
76125;SDS011;65174;48.138;21.002;2023-06-22T09:05:36;5.90;;;4.27;;
76125;SDS011;65174;48.138;21.002;2023-06-22T09:08:39;4.68;;;3.85;;
76125;SDS011;65174;48.138;21.002;2023-06-22T09:11:40;5.00;;;3.90;;
76125;SDS011;65174;48.138;21.002;2023-06-22T09:14:42;6.55;;;3.95;;
76125;SDS011;65174;48.138;21.002;2023-06-22T09:17:44;5.68;;;4.15;;
76125;SDS011;65174;48.138;21.002;2023-06-22T09:20:48;6.40;;;4.47;;
76125;SDS011;65174;48.138;21.002;2023-06-22T09:23:51;5.60;;;4.47;;
76125;SDS011;65174;48.138;21.002;2023-06-22T09:26:53;7.63;;;4.72;;
76125;SDS011;65174;48.138;21.002;2023-06-22T09:29:55;5.57;;;3.92;;
76125;SDS011;65174;48.138;21.002;2023-06-22T09:32:57;5.82;;;4.55;;
76125;SDS011;65174;48.138;21.002;2023-06-22T09:35:59;5.10;;;3.87;;
76125;SDS011;65174;48.138;21.002;2023-06-22T09:39:01;5.45;;;3.90;;
76125;SDS011;65174;48.138;21.002;2023-06-22T09:42:07;5.43;;;4.43;;
76125;SDS011;65174;48.138;21.002;2023-06-22T09:45:09;4.78;;;4.00;;
76125;SDS011;65174;48.138;21.002;2023-06-22T09:48:11;5.15;;;3.88;;
76125;SDS011;65174;48.138;21.002;2023-06-22T17:21:25;6.43;;;3.33;;
76125;SDS011;65174;48.138;21.002;2023-06-22T17:24:29;3.87;;;2.73;;
76125;SDS011;65174;48.138;21.002;2023-06-22T17:27:32;4.97;;;3.38;;
76125;SDS011;65174;48.138;21.002;2023-06-22T17:30:34;4.03;;;2.67;;
76125;SDS011;65174;48.138;21.002;2023-06-22T17:33:37;3.55;;;2.33;;
76125;SDS011;65174;48.138;21.002;2023-06-22T17:36:49;3.03;;;2.72;;
76125;SDS011;65174;48.138;21.002;2023-06-22T17:39:52;2.30;;;2.10;;
76125;SDS011;65174;48.138;21.002;2023-06-22T17:43:03;4.07;;;2.85;;
76125;SDS011;65174;48.138;21.002;2023-06-22T17:46:09;5.43;;;2.70;;
76125;SDS011;65174;48.138;21.002;2023-06-22T17:49:12;3.10;;;2.08;;
76125;SDS011;65174;48.138;21.002;2023-06-22T17:52:19;2.90;;;2.58;;
76125;SDS011;65174;48.138;21.002;2023-06-22T17:55:22;3.97;;;2.30;;
76125;SDS011;65174;48.138;21.002;2023-06-22T17:58:25;3.53;;;2.42;;
76125;SDS011;65174;48.138;21.002;2023-06-22T18:01:34;3.55;;;3.10;;
76125;SDS011;65174;48.138;21.002;2023-06-22T18:04:37;4.95;;;3.05;;
76125;SDS011;65174;48.138;21.002;2023-06-22T18:07:39;4.15;;;3.45;;
76125;SDS011;65174;48.138;21.002;2023-06-22T18:10:42;4.00;;;2.90;;
76125;SDS011;65174;48.138;21.002;2023-06-22T18:13:44;4.20;;;2.63;;
76125;SDS011;65174;48.138;21.002;2023-06-22T18:16:47;5.13;;;3.25;;
76125;SDS011;65174;48.138;21.002;2023-06-22T18:19:50;2.72;;;2.20;;
76125;SDS011;65174;48.138;21.002;2023-06-22T18:22:53;3.28;;;2.72;;
76125;SDS011;65174;48.138;21.002;2023-06-22T18:25:55;4.53;;;2.77;;
76125;SDS011;65174;48.138;21.002;2023-06-22T18:28:58;3.10;;;2.53;;
76125;SDS011;65174;48.138;21.002;2023-06-22T18:32:00;2.90;;;2.60;;
76125;SDS011;65174;48.138;21.002;2023-06-22T18:35:02;2.85;;;2.50;;
76125;SDS011;65174;48.138;21.002;2023-06-22T18:38:05;3.55;;;2.15;;
76125;SDS011;65174;48.138;21.002;2023-06-22T18:41:19;3.77;;;2.73;;
76125;SDS011;65174;48.138;21.002;2023-06-22T18:44:31;3.15;;;2.25;;
76125;SDS011;65174;48.138;21.002;2023-06-22T18:47:36;3.13;;;2.33;;
76125;SDS011;65174;48.138;21.002;2023-06-22T18:50:42;3.60;;;2.33;;
76125;SDS011;65174;48.138;21.002;2023-06-22T18:53:45;2.83;;;2.28;;
76125;SDS011;65174;48.138;21.002;2023-06-22T18:57:22;2.77;;;2.50;;
76125;SDS011;65174;48.138;21.002;2023-06-22T19:00:30;4.15;;;3.25;;
76125;SDS011;65174;48.138;21.002;2023-06-22T19:03:33;4.63;;;3.20;;
76125;SDS011;65174;48.138;21.002;2023-06-22T19:10:24;3.72;;;2.25;;
76125;SDS011;65174;48.138;21.002;2023-06-22T19:13:29;2.17;;;1.70;;
76125;SDS011;65174;48.138;21.002;2023-06-22T19:16:32;2.40;;;1.92;;
76125;SDS011;65174;48.138;21.002;2023-06-22T19:19:34;6.68;;;2.67;;
76125;SDS011;65174;48.138;21.002;2023-06-22T19:22:43;3.72;;;2.05;;
76125;SDS011;65174;48.138;21.002;2023-06-22T19:25:48;3.20;;;2.58;;
76125;SDS011;65174;48.138;21.002;2023-06-22T19:28:52;3.20;;;2.07;;
76125;SDS011;65174;48.138;21.002;2023-06-22T19:31:55;3.47;;;1.95;;
76125;SDS011;65174;48.138;21.002;2023-06-22T19:34:59;2.90;;;2.53;;
76125;SDS011;65174;48.138;21.002;2023-06-22T19:38:01;5.47;;;2.30;;
76125;SDS011;65174;48.138;21.002;2023-06-22T19:41:06;4.10;;;2.67;;
76125;SDS011;65174;48.138;21.002;2023-06-22T19:44:09;3.53;;;1.87;;
76125;SDS011;65174;48.138;21.002;2023-06-22T19:47:11;4.90;;;2.60;;
76125;SDS011;65174;48.138;21.002;2023-06-22T19:50:14;3.15;;;2.53;;
76125;SDS011;65174;48.138;21.002;2023-06-22T19:53:18;3.13;;;2.00;;
76125;SDS011;65174;48.138;21.002;2023-06-22T19:56:20;4.57;;;1.85;;
76125;SDS011;65174;48.138;21.002;2023-06-22T19:59:23;2.80;;;1.87;;
76125;SDS011;65174;48.138;21.002;2023-06-22T20:02:25;4.35;;;1.45;;
76125;SDS011;65174;48.138;21.002;2023-06-22T20:05:28;2.80;;;2.10;;
76125;SDS011;65174;48.138;21.002;2023-06-22T20:08:30;2.25;;;1.88;;
76125;SDS011;65174;48.138;21.002;2023-06-22T20:11:44;3.55;;;2.20;;
76125;SDS011;65174;48.138;21.002;2023-06-22T20:14:46;3.37;;;2.10;;
76125;SDS011;65174;48.138;21.002;2023-06-22T20:20:56;2.83;;;1.77;;
76125;SDS011;65174;48.138;21.002;2023-06-22T20:24:02;2.92;;;2.20;;
76125;SDS011;65174;48.138;21.002;2023-06-22T20:27:11;4.00;;;2.42;;
76125;SDS011;65174;48.138;21.002;2023-06-22T20:30:17;3.37;;;2.17;;
76125;SDS011;65174;48.138;21.002;2023-06-22T20:33:21;4.32;;;2.25;;
76125;SDS011;65174;48.138;21.002;2023-06-22T20:36:23;3.55;;;2.63;;
76125;SDS011;65174;48.138;21.002;2023-06-22T20:39:25;3.22;;;2.17;;
76125;SDS011;65174;48.138;21.002;2023-06-22T20:42:27;3.58;;;2.28;;
76125;SDS011;65174;48.138;21.002;2023-06-22T20:45:29;2.47;;;1.97;;
76125;SDS011;65174;48.138;21.002;2023-06-22T20:48:34;3.03;;;2.05;;
76125;SDS011;65174;48.138;21.002;2023-06-22T20:51:40;4.05;;;2.17;;
76125;SDS011;65174;48.138;21.002;2023-06-22T20:54:42;4.68;;;2.40;;
76125;SDS011;65174;48.138;21.002;2023-06-22T20:57:45;3.72;;;2.55;;
76125;SDS011;65174;48.138;21.002;2023-06-22T21:00:47;3.83;;;1.90;;
76125;SDS011;65174;48.138;21.002;2023-06-22T21:03:49;5.10;;;2.30;;
76125;SDS011;65174;48.138;21.002;2023-06-22T21:06:51;3.15;;;2.47;;
76125;SDS011;65174;48.138;21.002;2023-06-22T21:09:53;3.25;;;2.30;;
76125;SDS011;65174;48.138;21.002;2023-06-22T21:12:55;5.15;;;2.60;;
76125;SDS011;65174;48.138;21.002;2023-06-22T21:15:57;2.97;;;2.23;;
76125;SDS011;65174;48.138;21.002;2023-06-22T21:18:59;2.88;;;1.67;;
76125;SDS011;65174;48.138;21.002;2023-06-22T21:22:01;3.15;;;2.75;;
76125;SDS011;65174;48.138;21.002;2023-06-22T21:28:09;3.13;;;2.15;;
76125;SDS011;65174;48.138;21.002;2023-06-22T21:31:11;4.77;;;2.37;;
76125;SDS011;65174;48.138;21.002;2023-06-22T21:34:13;2.83;;;2.45;;
76125;SDS011;65174;48.138;21.002;2023-06-22T21:37:14;2.90;;;2.33;;
76125;SDS011;65174;48.138;21.002;2023-06-22T21:40:16;3.83;;;2.58;;
76125;SDS011;65174;48.138;21.002;2023-06-22T21:43:18;2.90;;;2.28;;
76125;SDS011;65174;48.138;21.002;2023-06-22T21:46:21;4.30;;;2.63;;
76125;SDS011;65174;48.138;21.002;2023-06-22T21:49:23;2.92;;;2.53;;
76125;SDS011;65174;48.138;21.002;2023-06-22T21:52:25;4.95;;;3.00;;
76125;SDS011;65174;48.138;21.002;2023-06-22T21:55:31;2.90;;;2.55;;
76125;SDS011;65174;48.138;21.002;2023-06-22T21:58:33;4.32;;;2.40;;
76125;SDS011;65174;48.138;21.002;2023-06-22T22:01:35;3.83;;;2.60;;
76125;SDS011;65174;48.138;21.002;2023-06-22T22:04:37;5.57;;;3.17;;
76125;SDS011;65174;48.138;21.002;2023-06-22T22:07:39;4.45;;;3.42;;
76125;SDS011;65174;48.138;21.002;2023-06-22T22:10:41;7.13;;;3.28;;
76125;SDS011;65174;48.138;21.002;2023-06-22T22:13:43;5.45;;;4.30;;
76125;SDS011;65174;48.138;21.002;2023-06-22T22:16:45;7.53;;;4.73;;
76125;SDS011;65174;48.138;21.002;2023-06-22T22:19:47;6.78;;;4.60;;
76125;SDS011;65174;48.138;21.002;2023-06-22T22:22:49;5.97;;;4.53;;
76125;SDS011;65174;48.138;21.002;2023-06-22T22:25:51;6.22;;;4.20;;
76125;SDS011;65174;48.138;21.002;2023-06-22T22:28:53;6.07;;;4.15;;
76125;SDS011;65174;48.138;21.002;2023-06-22T22:31:56;6.77;;;4.03;;
76125;SDS011;65174;48.138;21.002;2023-06-22T22:34:58;7.30;;;4.78;;
76125;SDS011;65174;48.138;21.002;2023-06-22T22:37:59;6.10;;;4.80;;
76125;SDS011;65174;48.138;21.002;2023-06-22T22:41:02;6.05;;;4.70;;
76125;SDS011;65174;48.138;21.002;2023-06-22T22:44:04;8.52;;;5.15;;
76125;SDS011;65174;48.138;21.002;2023-06-22T22:47:06;9.33;;;4.83;;
76125;SDS011;65174;48.138;21.002;2023-06-22T22:50:08;5.82;;;4.75;;
76125;SDS011;65174;48.138;21.002;2023-06-22T22:53:10;5.22;;;4.25;;
76125;SDS011;65174;48.138;21.002;2023-06-22T22:56:12;8.00;;;4.43;;
76125;SDS011;65174;48.138;21.002;2023-06-22T22:59:14;6.55;;;5.18;;
76125;SDS011;65174;48.138;21.002;2023-06-22T23:02:16;8.03;;;5.03;;
76125;SDS011;65174;48.138;21.002;2023-06-22T23:05:18;6.57;;;4.47;;
76125;SDS011;65174;48.138;21.002;2023-06-22T23:08:21;8.55;;;4.85;;
76125;SDS011;65174;48.138;21.002;2023-06-22T23:11:27;7.38;;;4.82;;
76125;SDS011;65174;48.138;21.002;2023-06-22T23:14:29;6.90;;;4.90;;
76125;SDS011;65174;48.138;21.002;2023-06-22T23:17:32;7.10;;;4.60;;
76125;SDS011;65174;48.138;21.002;2023-06-22T23:20:34;6.20;;;4.32;;
76125;SDS011;65174;48.138;21.002;2023-06-22T23:23:37;8.57;;;5.47;;
76125;SDS011;65174;48.138;21.002;2023-06-22T23:26:39;8.50;;;5.78;;
76125;SDS011;65174;48.138;21.002;2023-06-22T23:29:41;7.25;;;4.90;;
76125;SDS011;65174;48.138;21.002;2023-06-22T23:32:45;8.33;;;5.87;;
76125;SDS011;65174;48.138;21.002;2023-06-22T23:35:47;7.85;;;5.10;;
76125;SDS011;65174;48.138;21.002;2023-06-22T23:38:50;6.88;;;4.70;;
76125;SDS011;65174;48.138;21.002;2023-06-22T23:41:52;6.20;;;4.78;;
76125;SDS011;65174;48.138;21.002;2023-06-22T23:44:54;9.10;;;6.00;;
76125;SDS011;65174;48.138;21.002;2023-06-22T23:47:56;7.60;;;4.90;;
76125;SDS011;65174;48.138;21.002;2023-06-22T23:50:58;10.57;;;5.35;;
76125;SDS011;65174;48.138;21.002;2023-06-22T23:54:00;7.28;;;4.97;;
76125;SDS011;65174;48.138;21.002;2023-06-22T23:57:03;7.68;;;5.25;;
